sensor_id;sensor_type;location;lat;lon;timestamp;temperature;humidity
42905;DHT22;28550;51.228;4.528;2022-10-24T00:01:11;15.70;65.10
42905;DHT22;28550;51.228;4.528;2022-10-24T00:03:37;16.00;60.10
42905;DHT22;28550;51.228;4.528;2022-10-24T00:06:05;16.10;46.80
42905;DHT22;28550;51.228;4.528;2022-10-24T00:08:31;16.20;43.60
42905;DHT22;28550;51.228;4.528;2022-10-24T00:10:57;16.10;37.80
42905;DHT22;28550;51.228;4.528;2022-10-24T00:13:22;16.10;32.40
42905;DHT22;28550;51.228;4.528;2022-10-24T00:15:48;16.10;27.20
42905;DHT22;28550;51.228;4.528;2022-10-24T00:18:13;16.20;12.60
42905;DHT22;28550;51.228;4.528;2022-10-24T00:20:39;16.40;1.00
42905;DHT22;28550;51.228;4.528;2022-10-24T00:23:05;16.50;1.00
42905;DHT22;28550;51.228;4.528;2022-10-24T00:25:30;16.30;1.00
42905;DHT22;28550;51.228;4.528;2022-10-24T00:27:56;16.30;1.00
42905;DHT22;28550;51.228;4.528;2022-10-24T00:30:22;16.40;1.00
42905;DHT22;28550;51.228;4.528;2022-10-24T00:32:48;16.40;1.00
42905;DHT22;28550;51.228;4.528;2022-10-24T00:35:14;16.60;1.00
42905;DHT22;28550;51.228;4.528;2022-10-24T00:37:39;16.60;1.00
42905;DHT22;28550;51.228;4.528;2022-10-24T00:40:05;16.60;1.00
42905;DHT22;28550;51.228;4.528;2022-10-24T00:42:31;16.60;1.00
42905;DHT22;28550;51.228;4.528;2022-10-24T00:44:57;16.60;1.00
42905;DHT22;28550;51.228;4.528;2022-10-24T00:47:24;16.70;1.00
42905;DHT22;28550;51.228;4.528;2022-10-24T00:52:20;16.80;1.00
42905;DHT22;28550;51.228;4.528;2022-10-24T00:54:46;17.10;1.00
42905;DHT22;28550;51.228;4.528;2022-10-24T00:57:24;17.20;1.00
42905;DHT22;28550;51.228;4.528;2022-10-24T00:59:53;17.20;99.90
42905;DHT22;28550;51.228;4.528;2022-10-24T01:02:19;17.10;99.90
42905;DHT22;28550;51.228;4.528;2022-10-24T01:04:46;17.00;1.00
42905;DHT22;28550;51.228;4.528;2022-10-24T01:18:22;17.10;99.90
42905;DHT22;28550;51.228;4.528;2022-10-24T01:28:13;17.20;96.40
42905;DHT22;28550;51.228;4.528;2022-10-24T01:33:46;17.20;99.90
42905;DHT22;28550;51.228;4.528;2022-10-24T01:36:16;17.10;99.90
42905;DHT22;28550;51.228;4.528;2022-10-24T01:38:47;17.10;99.90
42905;DHT22;28550;51.228;4.528;2022-10-24T01:41:17;17.20;99.90
42905;DHT22;28550;51.228;4.528;2022-10-24T01:43:52;17.10;99.90
42905;DHT22;28550;51.228;4.528;2022-10-24T01:46:21;17.10;99.90
42905;DHT22;28550;51.228;4.528;2022-10-24T01:52:18;17.00;99.90
42905;DHT22;28550;51.228;4.528;2022-10-24T01:54:53;17.00;99.90
42905;DHT22;28550;51.228;4.528;2022-10-24T01:57:19;17.00;99.90
42905;DHT22;28550;51.228;4.528;2022-10-24T01:59:47;17.00;99.90
42905;DHT22;28550;51.228;4.528;2022-10-24T02:04:54;17.10;99.90
42905;DHT22;28550;51.228;4.528;2022-10-24T02:07:21;17.00;1.00
42905;DHT22;28550;51.228;4.528;2022-10-24T02:09:52;17.10;30.70
42905;DHT22;28550;51.228;4.528;2022-10-24T02:12:18;17.10;77.20
42905;DHT22;28550;51.228;4.528;2022-10-24T02:14:46;17.10;4.60
42905;DHT22;28550;51.228;4.528;2022-10-24T02:17:14;17.10;1.00
42905;DHT22;28550;51.228;4.528;2022-10-24T02:19:40;17.10;1.00
42905;DHT22;28550;51.228;4.528;2022-10-24T02:24:40;16.90;99.90
42905;DHT22;28550;51.228;4.528;2022-10-24T02:27:15;16.90;94.10
42905;DHT22;28550;51.228;4.528;2022-10-24T02:29:44;16.90;3.80
42905;DHT22;28550;51.228;4.528;2022-10-24T02:32:13;17.00;99.90
42905;DHT22;28550;51.228;4.528;2022-10-24T02:34:39;17.00;54.20
42905;DHT22;28550;51.228;4.528;2022-10-24T02:37:06;16.90;99.90
42905;DHT22;28550;51.228;4.528;2022-10-24T02:39:34;16.90;98.30
42905;DHT22;28550;51.228;4.528;2022-10-24T02:42:00;17.00;1.00
42905;DHT22;28550;51.228;4.528;2022-10-24T02:44:26;16.90;72.90
42905;DHT22;28550;51.228;4.528;2022-10-24T02:46:53;17.00;1.00
42905;DHT22;28550;51.228;4.528;2022-10-24T02:49:19;17.00;1.00
42905;DHT22;28550;51.228;4.528;2022-10-24T02:51:46;16.90;1.00
42905;DHT22;28550;51.228;4.528;2022-10-24T02:54:12;17.10;1.00
42905;DHT22;28550;51.228;4.528;2022-10-24T02:56:40;17.10;1.00
42905;DHT22;28550;51.228;4.528;2022-10-24T02:59:08;17.20;99.90
42905;DHT22;28550;51.228;4.528;2022-10-24T03:01:34;17.30;99.90
42905;DHT22;28550;51.228;4.528;2022-10-24T03:04:00;17.30;99.90
42905;DHT22;28550;51.228;4.528;2022-10-24T03:06:25;17.30;99.90
42905;DHT22;28550;51.228;4.528;2022-10-24T03:08:51;17.30;99.90
42905;DHT22;28550;51.228;4.528;2022-10-24T03:11:16;17.30;99.90
42905;DHT22;28550;51.228;4.528;2022-10-24T03:13:42;17.30;99.90
42905;DHT22;28550;51.228;4.528;2022-10-24T03:16:07;17.30;1.00
42905;DHT22;28550;51.228;4.528;2022-10-24T03:18:33;17.20;59.50
42905;DHT22;28550;51.228;4.528;2022-10-24T03:20:58;17.30;1.00
42905;DHT22;28550;51.228;4.528;2022-10-24T03:23:24;17.30;1.00
42905;DHT22;28550;51.228;4.528;2022-10-24T03:25:56;17.20;99.90
42905;DHT22;28550;51.228;4.528;2022-10-24T03:28:22;17.20;99.90
42905;DHT22;28550;51.228;4.528;2022-10-24T03:30:49;17.20;1.00
42905;DHT22;28550;51.228;4.528;2022-10-24T03:33:15;17.10;99.90
42905;DHT22;28550;51.228;4.528;2022-10-24T03:35:40;17.10;99.90
42905;DHT22;28550;51.228;4.528;2022-10-24T03:41:01;17.00;99.90
42905;DHT22;28550;51.228;4.528;2022-10-24T03:43:27;17.00;99.90
42905;DHT22;28550;51.228;4.528;2022-10-24T03:46:01;16.90;99.90
42905;DHT22;28550;51.228;4.528;2022-10-24T03:48:30;17.00;99.90
42905;DHT22;28550;51.228;4.528;2022-10-24T03:50:55;17.00;99.90
42905;DHT22;28550;51.228;4.528;2022-10-24T03:53:21;16.90;99.90
42905;DHT22;28550;51.228;4.528;2022-10-24T03:55:47;16.90;99.90
42905;DHT22;28550;51.228;4.528;2022-10-24T03:58:18;16.90;99.90
42905;DHT22;28550;51.228;4.528;2022-10-24T04:01:06;16.90;99.90
42905;DHT22;28550;51.228;4.528;2022-10-24T04:03:35;16.90;99.90
42905;DHT22;28550;51.228;4.528;2022-10-24T04:06:01;16.90;99.90
42905;DHT22;28550;51.228;4.528;2022-10-24T04:08:27;17.00;99.90
42905;DHT22;28550;51.228;4.528;2022-10-24T04:10:53;16.90;99.90
42905;DHT22;28550;51.228;4.528;2022-10-24T04:13:19;16.80;99.90
42905;DHT22;28550;51.228;4.528;2022-10-24T04:15:46;16.80;99.90
42905;DHT22;28550;51.228;4.528;2022-10-24T04:18:12;16.90;99.90
42905;DHT22;28550;51.228;4.528;2022-10-24T05:53:48;16.40;1.00
42905;DHT22;28550;51.228;4.528;2022-10-24T06:04:14;16.20;1.00
42905;DHT22;28550;51.228;4.528;2022-10-24T10:30:20;19.30;1.00
42905;DHT22;28550;51.228;4.528;2022-10-24T10:35:45;19.60;1.00
42905;DHT22;28550;51.228;4.528;2022-10-24T10:44:41;19.90;99.90
42905;DHT22;28550;51.228;4.528;2022-10-24T10:50:01;19.60;99.90
42905;DHT22;28550;51.228;4.528;2022-10-24T10:52:31;19.60;99.90
42905;DHT22;28550;51.228;4.528;2022-10-24T10:54:59;19.70;1.00
42905;DHT22;28550;51.228;4.528;2022-10-24T11:05:39;19.40;99.90
42905;DHT22;28550;51.228;4.528;2022-10-24T11:08:10;18.90;1.00
42905;DHT22;28550;51.228;4.528;2022-10-24T11:10:44;18.80;1.00
42905;DHT22;28550;51.228;4.528;2022-10-24T11:13:14;18.70;1.00
42905;DHT22;28550;51.228;4.528;2022-10-24T11:15:41;18.70;37.20
42905;DHT22;28550;51.228;4.528;2022-10-24T11:18:13;18.70;44.10
42905;DHT22;28550;51.228;4.528;2022-10-24T11:23:15;18.60;98.50
42905;DHT22;28550;51.228;4.528;2022-10-24T11:25:55;18.60;99.90
42905;DHT22;28550;51.228;4.528;2022-10-24T11:28:27;18.80;22.50
42905;DHT22;28550;51.228;4.528;2022-10-24T11:30:59;18.80;56.40
42905;DHT22;28550;51.228;4.528;2022-10-24T11:33:29;18.90;1.00
42905;DHT22;28550;51.228;4.528;2022-10-24T12:04:19;20.30;1.00
42905;DHT22;28550;51.228;4.528;2022-10-24T12:14:42;19.70;1.00
42905;DHT22;28550;51.228;4.528;2022-10-24T12:19:41;20.70;1.00
42905;DHT22;28550;51.228;4.528;2022-10-24T12:22:13;21.90;99.90
42905;DHT22;28550;51.228;4.528;2022-10-24T12:24:39;22.60;99.90
42905;DHT22;28550;51.228;4.528;2022-10-24T12:27:06;21.40;99.90
42905;DHT22;28550;51.228;4.528;2022-10-24T12:29:34;20.70;99.90
42905;DHT22;28550;51.228;4.528;2022-10-24T12:32:21;20.40;99.90
42905;DHT22;28550;51.228;4.528;2022-10-24T12:35:00;19.90;1.00
42905;DHT22;28550;51.228;4.528;2022-10-24T12:37:31;20.40;1.00
42905;DHT22;28550;51.228;4.528;2022-10-24T12:53:14;24.00;1.00
42905;DHT22;28550;51.228;4.528;2022-10-24T13:34:22;25.20;1.00
42905;DHT22;28550;51.228;4.528;2022-10-24T13:39:47;26.00;1.00
42905;DHT22;28550;51.228;4.528;2022-10-24T13:42:18;26.00;1.00
42905;DHT22;28550;51.228;4.528;2022-10-24T13:44:46;25.60;1.00
42905;DHT22;28550;51.228;4.528;2022-10-24T13:47:33;25.40;1.00
42905;DHT22;28550;51.228;4.528;2022-10-24T13:50:05;25.30;1.00
42905;DHT22;28550;51.228;4.528;2022-10-24T13:52:37;25.90;1.00
42905;DHT22;28550;51.228;4.528;2022-10-24T13:55:19;25.90;1.00
42905;DHT22;28550;51.228;4.528;2022-10-24T13:57:54;25.80;1.00
42905;DHT22;28550;51.228;4.528;2022-10-24T14:02:46;26.50;1.00
42905;DHT22;28550;51.228;4.528;2022-10-24T14:07:56;26.40;1.00
42905;DHT22;28550;51.228;4.528;2022-10-24T14:22:36;25.50;1.00
42905;DHT22;28550;51.228;4.528;2022-10-24T14:27:56;24.60;1.00
42905;DHT22;28550;51.228;4.528;2022-10-24T14:30:24;23.90;1.00
42905;DHT22;28550;51.228;4.528;2022-10-24T14:33:21;23.10;1.00
42905;DHT22;28550;51.228;4.528;2022-10-24T14:35:47;22.60;1.00
42905;DHT22;28550;51.228;4.528;2022-10-24T14:38:13;22.40;1.00
42905;DHT22;28550;51.228;4.528;2022-10-24T14:40:41;22.20;1.00
42905;DHT22;28550;51.228;4.528;2022-10-24T14:43:17;21.90;1.00
42905;DHT22;28550;51.228;4.528;2022-10-24T14:48:29;21.30;1.00
42905;DHT22;28550;51.228;4.528;2022-10-24T14:51:13;21.10;1.00
42905;DHT22;28550;51.228;4.528;2022-10-24T14:53:41;20.80;50.40
42905;DHT22;28550;51.228;4.528;2022-10-24T14:58:49;20.10;1.00
42905;DHT22;28550;51.228;4.528;2022-10-24T15:01:17;19.80;99.90
42905;DHT22;28550;51.228;4.528;2022-10-24T15:03:54;19.70;84.30
42905;DHT22;28550;51.228;4.528;2022-10-24T15:06:27;19.40;99.90
42905;DHT22;28550;51.228;4.528;2022-10-24T15:09:04;19.30;99.90
42905;DHT22;28550;51.228;4.528;2022-10-24T15:11:30;19.40;1.00
42905;DHT22;28550;51.228;4.528;2022-10-24T15:13:56;19.10;99.90
42905;DHT22;28550;51.228;4.528;2022-10-24T15:19:13;19.00;1.00
42905;DHT22;28550;51.228;4.528;2022-10-24T15:21:48;18.80;99.90
42905;DHT22;28550;51.228;4.528;2022-10-24T15:24:26;18.50;99.90
42905;DHT22;28550;51.228;4.528;2022-10-24T16:16:08;16.70;18.30
42905;DHT22;28550;51.228;4.528;2022-10-24T17:11:50;16.10;74.50
42905;DHT22;28550;51.228;4.528;2022-10-24T17:19:52;16.00;78.30
42905;DHT22;28550;51.228;4.528;2022-10-24T17:22:20;16.10;76.20
42905;DHT22;28550;51.228;4.528;2022-10-24T17:24:46;16.20;78.40
42905;DHT22;28550;51.228;4.528;2022-10-24T17:29:52;16.10;83.30
42905;DHT22;28550;51.228;4.528;2022-10-24T17:32:18;16.00;86.10
42905;DHT22;28550;51.228;4.528;2022-10-24T17:34:44;15.80;90.50
42905;DHT22;28550;51.228;4.528;2022-10-24T17:40:19;15.60;93.80
42905;DHT22;28550;51.228;4.528;2022-10-24T17:42:48;15.50;94.80
42905;DHT22;28550;51.228;4.528;2022-10-24T17:45:18;15.30;96.20
42905;DHT22;28550;51.228;4.528;2022-10-24T17:50:35;15.40;94.80
42905;DHT22;28550;51.228;4.528;2022-10-24T17:53:11;15.30;92.00
42905;DHT22;28550;51.228;4.528;2022-10-24T17:55:37;15.20;93.50
42905;DHT22;28550;51.228;4.528;2022-10-24T17:58:03;15.10;94.80
42905;DHT22;28550;51.228;4.528;2022-10-24T18:00:28;15.00;95.70
42905;DHT22;28550;51.228;4.528;2022-10-24T18:02:54;14.90;96.50
42905;DHT22;28550;51.228;4.528;2022-10-24T18:05:20;14.90;95.90
42905;DHT22;28550;51.228;4.528;2022-10-24T18:07:46;14.80;96.60
42905;DHT22;28550;51.228;4.528;2022-10-24T18:10:13;14.80;96.90
42905;DHT22;28550;51.228;4.528;2022-10-24T18:12:39;14.80;97.30
42905;DHT22;28550;51.228;4.528;2022-10-24T18:15:09;14.70;96.70
42905;DHT22;28550;51.228;4.528;2022-10-24T18:17:35;14.70;97.70
42905;DHT22;28550;51.228;4.528;2022-10-24T18:20:06;14.70;97.00
42905;DHT22;28550;51.228;4.528;2022-10-24T18:54:31;13.80;96.90
42905;DHT22;28550;51.228;4.528;2022-10-24T19:49:35;14.20;99.00
42905;DHT22;28550;51.228;4.528;2022-10-24T19:55:50;14.30;98.70
